sensor_id;sensor_type;location;lat;lon;timestamp;temperature;humidity
27258;DHT22;62045;49.986;8.672;2022-11-04T00:03:27;17.30;66.40
27258;DHT22;62045;49.986;8.672;2022-11-04T00:08:29;17.50;66.20
27258;DHT22;62045;49.986;8.672;2022-11-04T00:13:30;17.60;65.90
27258;DHT22;62045;49.986;8.672;2022-11-04T00:18:31;17.80;65.50
27258;DHT22;62045;49.986;8.672;2022-11-04T00:23:33;17.90;65.10
27258;DHT22;62045;49.986;8.672;2022-11-04T00:28:33;18.10;64.80
27258;DHT22;62045;49.986;8.672;2022-11-04T00:33:34;18.10;64.60
27258;DHT22;62045;49.986;8.672;2022-11-04T00:38:36;18.10;64.50
27258;DHT22;62045;49.986;8.672;2022-11-04T00:43:37;18.10;64.60
27258;DHT22;62045;49.986;8.672;2022-11-04T00:48:37;18.10;64.60
27258;DHT22;62045;49.986;8.672;2022-11-04T00:53:39;18.00;64.70
27258;DHT22;62045;49.986;8.672;2022-11-04T00:58:40;18.00;64.90
27258;DHT22;62045;49.986;8.672;2022-11-04T01:03:41;17.90;64.90
27258;DHT22;62045;49.986;8.672;2022-11-04T01:08:43;17.80;65.10
27258;DHT22;62045;49.986;8.672;2022-11-04T01:13:43;17.80;65.20
27258;DHT22;62045;49.986;8.672;2022-11-04T01:18:44;17.80;65.30
27258;DHT22;62045;49.986;8.672;2022-11-04T01:23:47;17.70;65.40
27258;DHT22;62045;49.986;8.672;2022-11-04T01:28:47;17.70;65.50
27258;DHT22;62045;49.986;8.672;2022-11-04T01:33:50;17.60;65.50
27258;DHT22;62045;49.986;8.672;2022-11-04T01:38:53;17.60;65.60
27258;DHT22;62045;49.986;8.672;2022-11-04T01:43:55;17.60;65.70
27258;DHT22;62045;49.986;8.672;2022-11-04T01:49:00;17.60;65.70
27258;DHT22;62045;49.986;8.672;2022-11-04T01:54:05;17.60;65.80
27258;DHT22;62045;49.986;8.672;2022-11-04T01:59:12;17.60;65.60
27258;DHT22;62045;49.986;8.672;2022-11-04T02:04:14;17.70;65.50
27258;DHT22;62045;49.986;8.672;2022-11-04T02:09:21;17.80;66.10
27258;DHT22;62045;49.986;8.672;2022-11-04T02:14:22;17.70;65.20
27258;DHT22;62045;49.986;8.672;2022-11-04T02:19:38;17.70;65.20
27258;DHT22;62045;49.986;8.672;2022-11-04T02:25:14;17.70;65.20
27258;DHT22;62045;49.986;8.672;2022-11-04T02:30:23;17.70;65.30
27258;DHT22;62045;49.986;8.672;2022-11-04T02:35:31;17.70;65.40
27258;DHT22;62045;49.986;8.672;2022-11-04T02:40:40;17.60;65.50
27258;DHT22;62045;49.986;8.672;2022-11-04T02:45:46;17.60;65.60
27258;DHT22;62045;49.986;8.672;2022-11-04T02:50:51;17.50;65.60
27258;DHT22;62045;49.986;8.672;2022-11-04T02:55:55;17.50;65.70
27258;DHT22;62045;49.986;8.672;2022-11-04T03:00:59;17.50;65.70
27258;DHT22;62045;49.986;8.672;2022-11-04T03:06:01;17.50;65.80
27258;DHT22;62045;49.986;8.672;2022-11-04T03:11:11;17.60;65.70
27258;DHT22;62045;49.986;8.672;2022-11-04T03:16:16;17.60;65.60
27258;DHT22;62045;49.986;8.672;2022-11-04T03:21:19;17.70;65.40
27258;DHT22;62045;49.986;8.672;2022-11-04T03:26:24;17.70;65.30
27258;DHT22;62045;49.986;8.672;2022-11-04T03:31:32;17.80;65.20
27258;DHT22;62045;49.986;8.672;2022-11-04T03:36:34;17.80;65.30
27258;DHT22;62045;49.986;8.672;2022-11-04T03:41:39;17.70;65.30
27258;DHT22;62045;49.986;8.672;2022-11-04T03:46:42;17.70;65.40
27258;DHT22;62045;49.986;8.672;2022-11-04T03:51:43;17.70;65.40
27258;DHT22;62045;49.986;8.672;2022-11-04T03:56:58;17.60;65.50
27258;DHT22;62045;49.986;8.672;2022-11-04T04:02:07;17.60;65.60
27258;DHT22;62045;49.986;8.672;2022-11-04T04:07:16;17.60;65.70
27258;DHT22;62045;49.986;8.672;2022-11-04T04:12:23;17.50;65.70
27258;DHT22;62045;49.986;8.672;2022-11-04T04:17:31;17.50;65.80
27258;DHT22;62045;49.986;8.672;2022-11-04T04:22:37;17.50;65.80
27258;DHT22;62045;49.986;8.672;2022-11-04T04:27:40;17.50;65.70
27258;DHT22;62045;49.986;8.672;2022-11-04T04:32:44;17.60;65.70
27258;DHT22;62045;49.986;8.672;2022-11-04T04:37:45;17.60;65.50
27258;DHT22;62045;49.986;8.672;2022-11-04T04:42:46;17.60;65.40
27258;DHT22;62045;49.986;8.672;2022-11-04T04:47:49;17.70;65.30
27258;DHT22;62045;49.986;8.672;2022-11-04T04:52:52;17.70;65.20
27258;DHT22;62045;49.986;8.672;2022-11-04T04:57:54;17.70;65.20
27258;DHT22;62045;49.986;8.672;2022-11-04T05:02:56;17.60;65.20
27258;DHT22;62045;49.986;8.672;2022-11-04T05:08:03;17.60;65.30
27258;DHT22;62045;49.986;8.672;2022-11-04T05:13:04;17.60;65.40
27258;DHT22;62045;49.986;8.672;2022-11-04T05:18:06;17.60;65.50
27258;DHT22;62045;49.986;8.672;2022-11-04T05:23:07;17.50;65.50
27258;DHT22;62045;49.986;8.672;2022-11-04T05:28:08;17.50;65.60
27258;DHT22;62045;49.986;8.672;2022-11-04T05:33:10;17.50;65.70
27258;DHT22;62045;49.986;8.672;2022-11-04T05:38:10;17.50;65.50
27258;DHT22;62045;49.986;8.672;2022-11-04T05:43:11;17.60;65.30
27258;DHT22;62045;49.986;8.672;2022-11-04T05:48:13;17.70;65.20
27258;DHT22;62045;49.986;8.672;2022-11-04T05:53:14;17.70;65.00
27258;DHT22;62045;49.986;8.672;2022-11-04T05:58:14;17.70;64.90
27258;DHT22;62045;49.986;8.672;2022-11-04T06:03:16;17.80;64.90
27258;DHT22;62045;49.986;8.672;2022-11-04T06:08:17;17.70;64.90
27258;DHT22;62045;49.986;8.672;2022-11-04T06:13:18;17.70;65.00
27258;DHT22;62045;49.986;8.672;2022-11-04T06:18:22;17.70;65.10
27258;DHT22;62045;49.986;8.672;2022-11-04T06:23:22;17.70;65.20
27258;DHT22;62045;49.986;8.672;2022-11-04T06:28:23;17.60;65.20
27258;DHT22;62045;49.986;8.672;2022-11-04T06:33:26;17.60;65.30
27258;DHT22;62045;49.986;8.672;2022-11-04T06:38:29;17.60;65.40
27258;DHT22;62045;49.986;8.672;2022-11-04T06:43:30;17.60;65.40
27258;DHT22;62045;49.986;8.672;2022-11-04T06:48:32;17.50;65.40
27258;DHT22;62045;49.986;8.672;2022-11-04T06:53:33;17.60;65.50
27258;DHT22;62045;49.986;8.672;2022-11-04T06:58:33;17.60;65.40
27258;DHT22;62045;49.986;8.672;2022-11-04T07:03:35;17.60;65.20
27258;DHT22;62045;49.986;8.672;2022-11-04T07:08:36;17.70;65.00
27258;DHT22;62045;49.986;8.672;2022-11-04T07:13:37;17.70;64.90
27258;DHT22;62045;49.986;8.672;2022-11-04T07:18:39;17.70;64.90
27258;DHT22;62045;49.986;8.672;2022-11-04T07:23:40;17.70;64.90
27258;DHT22;62045;49.986;8.672;2022-11-04T07:28:40;17.70;65.00
27258;DHT22;62045;49.986;8.672;2022-11-04T07:33:42;17.70;66.30
27258;DHT22;62045;49.986;8.672;2022-11-04T07:38:43;17.80;67.60
27258;DHT22;62045;49.986;8.672;2022-11-04T07:43:47;17.80;68.00
27258;DHT22;62045;49.986;8.672;2022-11-04T07:48:49;17.90;69.10
27258;DHT22;62045;49.986;8.672;2022-11-04T07:53:50;18.00;69.30
27258;DHT22;62045;49.986;8.672;2022-11-04T07:58:51;17.90;68.90
27258;DHT22;62045;49.986;8.672;2022-11-04T08:03:53;17.90;68.50
27258;DHT22;62045;49.986;8.672;2022-11-04T08:08:54;17.80;68.20
27258;DHT22;62045;49.986;8.672;2022-11-04T08:13:57;17.80;68.10
27258;DHT22;62045;49.986;8.672;2022-11-04T08:18:59;17.80;68.00
27258;DHT22;62045;49.986;8.672;2022-11-04T08:24:00;17.80;67.90
27258;DHT22;62045;49.986;8.672;2022-11-04T08:29:05;17.80;67.80
27258;DHT22;62045;49.986;8.672;2022-11-04T08:34:07;17.90;67.70
27258;DHT22;62045;49.986;8.672;2022-11-04T08:39:09;17.90;67.30
27258;DHT22;62045;49.986;8.672;2022-11-04T08:44:11;17.90;67.20
27258;DHT22;62045;49.986;8.672;2022-11-04T08:49:13;17.90;67.10
27258;DHT22;62045;49.986;8.672;2022-11-04T08:54:14;17.90;67.10
27258;DHT22;62045;49.986;8.672;2022-11-04T08:59:15;17.80;67.10
27258;DHT22;62045;49.986;8.672;2022-11-04T09:04:17;17.80;67.10
27258;DHT22;62045;49.986;8.672;2022-11-04T09:09:18;17.80;67.10
27258;DHT22;62045;49.986;8.672;2022-11-04T09:14:19;17.80;67.20
27258;DHT22;62045;49.986;8.672;2022-11-04T09:19:21;17.70;67.30
27258;DHT22;62045;49.986;8.672;2022-11-04T09:24:22;17.60;67.40
27258;DHT22;62045;49.986;8.672;2022-11-04T09:29:22;17.60;67.50
27258;DHT22;62045;49.986;8.672;2022-11-04T09:34:24;17.60;67.50
27258;DHT22;62045;49.986;8.672;2022-11-04T09:39:25;17.60;67.50
27258;DHT22;62045;49.986;8.672;2022-11-04T09:44:29;17.60;67.40
27258;DHT22;62045;49.986;8.672;2022-11-04T09:49:36;17.50;67.40
27258;DHT22;62045;49.986;8.672;2022-11-04T09:54:42;17.50;67.40
27258;DHT22;62045;49.986;8.672;2022-11-04T09:59:44;17.50;67.40
27258;DHT22;62045;49.986;8.672;2022-11-04T10:04:55;17.60;67.60
27258;DHT22;62045;49.986;8.672;2022-11-04T10:10:02;17.70;67.50
27258;DHT22;62045;49.986;8.672;2022-11-04T10:15:18;17.80;67.20
27258;DHT22;62045;49.986;8.672;2022-11-04T10:20:34;17.80;67.10
27258;DHT22;62045;49.986;8.672;2022-11-04T10:25:46;17.80;67.00
27258;DHT22;62045;49.986;8.672;2022-11-04T10:30:49;17.90;67.20
27258;DHT22;62045;49.986;8.672;2022-11-04T10:35:54;17.80;67.50
27258;DHT22;62045;49.986;8.672;2022-11-04T10:40:57;17.80;67.60
27258;DHT22;62045;49.986;8.672;2022-11-04T10:46:10;17.80;67.40
27258;DHT22;62045;49.986;8.672;2022-11-04T10:51:15;17.90;67.30
27258;DHT22;62045;49.986;8.672;2022-11-04T10:56:20;17.90;67.10
27258;DHT22;62045;49.986;8.672;2022-11-04T11:01:24;17.90;66.80
27258;DHT22;62045;49.986;8.672;2022-11-04T11:06:28;18.00;66.80
27258;DHT22;62045;49.986;8.672;2022-11-04T11:11:41;18.00;66.60
27258;DHT22;62045;49.986;8.672;2022-11-04T11:16:42;18.00;66.30
27258;DHT22;62045;49.986;8.672;2022-11-04T11:21:46;18.00;66.00
27258;DHT22;62045;49.986;8.672;2022-11-04T11:26:49;18.00;65.90
27258;DHT22;62045;49.986;8.672;2022-11-04T11:31:51;18.00;65.90
27258;DHT22;62045;49.986;8.672;2022-11-04T11:36:55;17.90;66.50
27258;DHT22;62045;49.986;8.672;2022-11-04T11:41:58;18.00;65.70
27258;DHT22;62045;49.986;8.672;2022-11-04T11:47:02;18.00;65.60
27258;DHT22;62045;49.986;8.672;2022-11-04T11:52:29;17.90;65.80
27258;DHT22;62045;49.986;8.672;2022-11-04T11:57:37;17.90;66.00
27258;DHT22;62045;49.986;8.672;2022-11-04T12:02:44;18.00;66.20
27258;DHT22;62045;49.986;8.672;2022-11-04T12:07:52;18.00;66.30
27258;DHT22;62045;49.986;8.672;2022-11-04T12:13:03;17.90;66.20
27258;DHT22;62045;49.986;8.672;2022-11-04T12:18:26;17.90;66.30
27258;DHT22;62045;49.986;8.672;2022-11-04T12:23:38;17.80;66.40
27258;DHT22;62045;49.986;8.672;2022-11-04T12:28:50;17.80;66.40
27258;DHT22;62045;49.986;8.672;2022-11-04T12:34:01;17.70;66.50
27258;DHT22;62045;49.986;8.672;2022-11-04T12:39:19;17.70;66.60
27258;DHT22;62045;49.986;8.672;2022-11-04T12:44:31;17.70;66.70
27258;DHT22;62045;49.986;8.672;2022-11-04T12:55:22;17.70;66.70
27258;DHT22;62045;49.986;8.672;2022-11-04T13:00:24;17.70;66.50
27258;DHT22;62045;49.986;8.672;2022-11-04T13:05:36;17.80;66.40
27258;DHT22;62045;49.986;8.672;2022-11-04T13:10:42;17.80;66.30
27258;DHT22;62045;49.986;8.672;2022-11-04T13:15:48;17.80;66.30
27258;DHT22;62045;49.986;8.672;2022-11-04T13:20:55;17.80;66.20
27258;DHT22;62045;49.986;8.672;2022-11-04T13:25:58;17.80;66.30
27258;DHT22;62045;49.986;8.672;2022-11-04T13:31:04;17.80;66.30
27258;DHT22;62045;49.986;8.672;2022-11-04T13:36:17;17.80;66.30
27258;DHT22;62045;49.986;8.672;2022-11-04T13:41:39;17.80;66.40
27258;DHT22;62045;49.986;8.672;2022-11-04T13:46:48;17.80;66.60
27258;DHT22;62045;49.986;8.672;2022-11-04T13:52:02;17.80;66.80
27258;DHT22;62045;49.986;8.672;2022-11-04T13:57:14;17.80;66.80
27258;DHT22;62045;49.986;8.672;2022-11-04T14:02:39;17.80;66.80
27258;DHT22;62045;49.986;8.672;2022-11-04T14:08:08;17.70;66.80
27258;DHT22;62045;49.986;8.672;2022-11-04T14:13:41;17.70;66.80
27258;DHT22;62045;49.986;8.672;2022-11-04T14:18:44;17.70;66.90
27258;DHT22;62045;49.986;8.672;2022-11-04T14:23:46;17.70;66.90
27258;DHT22;62045;49.986;8.672;2022-11-04T14:28:58;17.70;66.70
27258;DHT22;62045;49.986;8.672;2022-11-04T14:34:00;17.80;66.50
27258;DHT22;62045;49.986;8.672;2022-11-04T14:39:03;17.90;66.20
27258;DHT22;62045;49.986;8.672;2022-11-04T14:44:13;18.00;66.20
27258;DHT22;62045;49.986;8.672;2022-11-04T14:49:38;17.90;66.00
27258;DHT22;62045;49.986;8.672;2022-11-04T14:54:39;17.90;66.00
27258;DHT22;62045;49.986;8.672;2022-11-04T14:59:42;17.90;66.10
27258;DHT22;62045;49.986;8.672;2022-11-04T15:04:51;17.90;66.20
27258;DHT22;62045;49.986;8.672;2022-11-04T15:09:53;17.80;66.10
27258;DHT22;62045;49.986;8.672;2022-11-04T15:14:55;17.80;67.30
27258;DHT22;62045;49.986;8.672;2022-11-04T15:19:58;17.90;71.20
27258;DHT22;62045;49.986;8.672;2022-11-04T15:25:02;17.90;69.80
27258;DHT22;62045;49.986;8.672;2022-11-04T15:30:18;17.90;69.10
27258;DHT22;62045;49.986;8.672;2022-11-04T15:35:19;17.80;68.60
27258;DHT22;62045;49.986;8.672;2022-11-04T15:40:20;17.80;68.00
27258;DHT22;62045;49.986;8.672;2022-11-04T15:45:37;17.80;67.60
27258;DHT22;62045;49.986;8.672;2022-11-04T15:50:38;17.80;67.50
27258;DHT22;62045;49.986;8.672;2022-11-04T15:55:39;17.80;67.10
27258;DHT22;62045;49.986;8.672;2022-11-04T16:00:42;17.80;66.40
27258;DHT22;62045;49.986;8.672;2022-11-04T16:06:03;17.90;66.40
27258;DHT22;62045;49.986;8.672;2022-11-04T16:11:11;18.00;66.30
27258;DHT22;62045;49.986;8.672;2022-11-04T16:16:21;18.10;66.20
27258;DHT22;62045;49.986;8.672;2022-11-04T16:21:27;18.10;66.10
27258;DHT22;62045;49.986;8.672;2022-11-04T16:26:34;18.00;66.10
27258;DHT22;62045;49.986;8.672;2022-11-04T16:31:37;18.00;66.10
27258;DHT22;62045;49.986;8.672;2022-11-04T16:36:38;18.00;66.20
27258;DHT22;62045;49.986;8.672;2022-11-04T16:41:39;18.00;66.30
27258;DHT22;62045;49.986;8.672;2022-11-04T16:46:42;17.90;66.40
27258;DHT22;62045;49.986;8.672;2022-11-04T16:51:42;17.90;66.40
27258;DHT22;62045;49.986;8.672;2022-11-04T16:56:43;17.80;66.50
27258;DHT22;62045;49.986;8.672;2022-11-04T17:01:45;17.80;67.50
27258;DHT22;62045;49.986;8.672;2022-11-04T17:06:46;17.80;68.10
27258;DHT22;62045;49.986;8.672;2022-11-04T17:11:47;17.90;68.20
27258;DHT22;62045;49.986;8.672;2022-11-04T17:16:49;17.90;68.30
27258;DHT22;62045;49.986;8.672;2022-11-04T17:21:50;17.90;68.30
27258;DHT22;62045;49.986;8.672;2022-11-04T17:26:51;18.00;68.50
27258;DHT22;62045;49.986;8.672;2022-11-04T17:31:53;18.00;68.40
27258;DHT22;62045;49.986;8.672;2022-11-04T17:36:54;17.90;68.20
27258;DHT22;62045;49.986;8.672;2022-11-04T17:41:54;18.00;68.20
27258;DHT22;62045;49.986;8.672;2022-11-04T17:46:57;17.90;68.00
27258;DHT22;62045;49.986;8.672;2022-11-04T17:51:58;17.90;68.00
27258;DHT22;62045;49.986;8.672;2022-11-04T17:56:58;17.90;68.00
27258;DHT22;62045;49.986;8.672;2022-11-04T18:02:02;17.80;67.90
27258;DHT22;62045;49.986;8.672;2022-11-04T18:07:03;17.80;68.00
27258;DHT22;62045;49.986;8.672;2022-11-04T18:12:04;17.80;68.00
27258;DHT22;62045;49.986;8.672;2022-11-04T18:17:06;17.80;67.90
27258;DHT22;62045;49.986;8.672;2022-11-04T18:22:07;17.80;67.90
27258;DHT22;62045;49.986;8.672;2022-11-04T18:27:08;17.80;67.90
27258;DHT22;62045;49.986;8.672;2022-11-04T18:32:10;17.80;67.90
27258;DHT22;62045;49.986;8.672;2022-11-04T18:37:11;17.80;67.80
27258;DHT22;62045;49.986;8.672;2022-11-04T18:42:12;17.80;67.80
27258;DHT22;62045;49.986;8.672;2022-11-04T18:47:17;17.80;67.70
27258;DHT22;62045;49.986;8.672;2022-11-04T18:52:18;17.70;68.40
27258;DHT22;62045;49.986;8.672;2022-11-04T18:57:21;17.70;67.60
27258;DHT22;62045;49.986;8.672;2022-11-04T19:02:23;17.80;67.60
27258;DHT22;62045;49.986;8.672;2022-11-04T19:07:24;17.80;67.50
27258;DHT22;62045;49.986;8.672;2022-11-04T19:12:25;17.80;67.40
27258;DHT22;62045;49.986;8.672;2022-11-04T19:17:27;17.80;67.20
27258;DHT22;62045;49.986;8.672;2022-11-04T19:22:27;17.80;67.10
27258;DHT22;62045;49.986;8.672;2022-11-04T19:27:28;17.80;67.10
27258;DHT22;62045;49.986;8.672;2022-11-04T19:32:30;17.80;67.20
27258;DHT22;62045;49.986;8.672;2022-11-04T19:37:31;17.80;67.20
27258;DHT22;62045;49.986;8.672;2022-11-04T19:42:32;17.70;67.20
27258;DHT22;62045;49.986;8.672;2022-11-04T19:47:35;17.70;67.30
27258;DHT22;62045;49.986;8.672;2022-11-04T19:52:35;17.70;67.60
27258;DHT22;62045;49.986;8.672;2022-11-04T19:57:36;17.60;67.50
27258;DHT22;62045;49.986;8.672;2022-11-04T20:02:38;17.60;67.50
27258;DHT22;62045;49.986;8.672;2022-11-04T20:07:39;17.60;67.60
27258;DHT22;62045;49.986;8.672;2022-11-04T20:12:40;17.60;67.60
27258;DHT22;62045;49.986;8.672;2022-11-04T20:17:42;17.60;67.50
27258;DHT22;62045;49.986;8.672;2022-11-04T20:22:45;17.60;67.30
27258;DHT22;62045;49.986;8.672;2022-11-04T20:27:46;17.70;67.20
27258;DHT22;62045;49.986;8.672;2022-11-04T20:32:48;17.70;67.10
27258;DHT22;62045;49.986;8.672;2022-11-04T20:37:49;17.70;67.00
27258;DHT22;62045;49.986;8.672;2022-11-04T20:42:50;17.70;67.70
27258;DHT22;62045;49.986;8.672;2022-11-04T20:47:53;17.70;67.00
27258;DHT22;62045;49.986;8.672;2022-11-04T20:52:56;17.70;67.00
27258;DHT22;62045;49.986;8.672;2022-11-04T20:57:57;17.70;67.10
27258;DHT22;62045;49.986;8.672;2022-11-04T21:02:59;17.60;67.10
27258;DHT22;62045;49.986;8.672;2022-11-04T21:08:00;17.60;67.10
27258;DHT22;62045;49.986;8.672;2022-11-04T21:13:01;17.60;67.20
27258;DHT22;62045;49.986;8.672;2022-11-04T21:18:03;17.60;67.20
27258;DHT22;62045;49.986;8.672;2022-11-04T21:23:04;17.60;67.20
27258;DHT22;62045;49.986;8.672;2022-11-04T21:28:05;17.60;67.20
27258;DHT22;62045;49.986;8.672;2022-11-04T21:33:07;17.60;67.20
27258;DHT22;62045;49.986;8.672;2022-11-04T21:38:09;17.60;67.20
27258;DHT22;62045;49.986;8.672;2022-11-04T21:43:12;17.60;67.20
27258;DHT22;62045;49.986;8.672;2022-11-04T21:48:14;17.60;67.20
27258;DHT22;62045;49.986;8.672;2022-11-04T21:53:14;17.50;67.20
27258;DHT22;62045;49.986;8.672;2022-11-04T21:58:17;17.50;67.20
27258;DHT22;62045;49.986;8.672;2022-11-04T22:03:22;17.50;67.20
27258;DHT22;62045;49.986;8.672;2022-11-04T22:08:23;17.40;67.20
27258;DHT22;62045;49.986;8.672;2022-11-04T22:13:23;17.40;67.30
27258;DHT22;62045;49.986;8.672;2022-11-04T22:18:26;17.40;67.30
27258;DHT22;62045;49.986;8.672;2022-11-04T22:23:27;17.40;67.30
27258;DHT22;62045;49.986;8.672;2022-11-04T22:28:29;17.40;67.40
27258;DHT22;62045;49.986;8.672;2022-11-04T22:33:31;17.40;67.40
27258;DHT22;62045;49.986;8.672;2022-11-04T22:38:32;17.40;67.40
27258;DHT22;62045;49.986;8.672;2022-11-04T22:43:33;17.30;67.40
27258;DHT22;62045;49.986;8.672;2022-11-04T22:48:35;17.30;67.40
27258;DHT22;62045;49.986;8.672;2022-11-04T22:53:36;17.30;67.40
27258;DHT22;62045;49.986;8.672;2022-11-04T22:58:37;17.30;67.40
27258;DHT22;62045;49.986;8.672;2022-11-04T23:03:40;17.30;67.40
27258;DHT22;62045;49.986;8.672;2022-11-04T23:08:40;17.30;67.50
27258;DHT22;62045;49.986;8.672;2022-11-04T23:13:47;17.20;67.40
27258;DHT22;62045;49.986;8.672;2022-11-04T23:18:50;17.20;67.40
27258;DHT22;62045;49.986;8.672;2022-11-04T23:23:51;17.20;67.40
27258;DHT22;62045;49.986;8.672;2022-11-04T23:28:52;17.20;67.40
27258;DHT22;62045;49.986;8.672;2022-11-04T23:33:54;17.20;67.50
27258;DHT22;62045;49.986;8.672;2022-11-04T23:38:55;17.20;67.50
27258;DHT22;62045;49.986;8.672;2022-11-04T23:43:55;17.20;67.50
27258;DHT22;62045;49.986;8.672;2022-11-04T23:48:57;17.20;67.40
27258;DHT22;62045;49.986;8.672;2022-11-04T23:53:58;17.30;67.30
27258;DHT22;62045;49.986;8.672;2022-11-04T23:58:59;17.40;67.00
